Bergoo, West Virginia
Current Conditions -  °F | °C
As of 1:15 PM on Thursday 23 Oct 2014 (Local Time) from KW22 Reporting Station
Overcast Overcast  
Wind Chill: 46°   Ceiling: 1400
Heat Index: 48°   Visibility: 10mi
Dew Point: 45°   Wind: 6mph
Humidity: 87%   Direction: 270°W
Pressure: 30.14"   Gusts: NA
Location:  38.49°N, 80.3°W
Report Text: KW22 231715Z AUTO 27005KT 10SM BKN014 OVC021 09/07 A3014 RMK AO2
Loading
Personal Weather Stations






























Interactive Weather Map
Tropical Storm Tracking
New forecast layout! Learn more

10-Day Weather Forecast

Advertisements
Track Severe Weather on mobile